Time;durP1;ratioP1;P1;durP2;ratioP2;P2;SDS_P1;SDS_P2;PMS_P1;PMS_P2;Temp;Humidity;BMP_temperature;BMP_pressure;BME280_temperature;BME280_humidity;BME280_pressure;Samples;Min_cycle;Max_cycle;Signal;HPM_P1;HPM_P2
2022/09/18 00:01:17;;;;;;;10.63;1.50;;;10.40;99.90;;;;;;5088413;28;20168;-82
2022/09/18 00:03:42;;;;;;;10.18;1.00;;;10.50;99.90;;;;;;5083395;28;20040;-82
2022/09/18 00:06:14;;;;;;;7.22;1.00;;;10.40;99.90;;;;;;5087394;28;20443;-82
2022/09/18 00:08:42;;;;;;;7.50;1.40;;;10.30;99.90;;;;;;5080164;28;20047;-82
2022/09/18 00:11:09;;;;;;;11.20;1.92;;;10.30;99.90;;;;;;5084437;28;20306;-82
2022/09/18 00:13:36;;;;;;;11.70;1.48;;;10.30;99.90;;;;;;5087074;28;20036;-82
2022/09/18 00:16:03;;;;;;;10.35;1.38;;;10.20;99.90;;;;;;5072317;28;20036;-82
2022/09/18 00:18:29;;;;;;;8.98;1.15;;;10.20;99.90;;;;;;5069163;28;20107;-83
2022/09/18 00:20:54;;;;;;;10.15;1.42;;;10.20;99.90;;;;;;5086425;28;20078;-83
2022/09/18 00:23:20;;;;;;;13.43;2.00;;;10.20;99.90;;;;;;5068894;28;20048;-81
2022/09/18 00:25:45;;;;;;;7.00;0.70;;;10.20;99.90;;;;;;5088044;28;20073;-81
2022/09/18 00:28:11;;;;;;;9.55;1.30;;;10.20;99.90;;;;;;5083818;28;20123;-83
2022/09/18 00:30:37;;;;;;;7.15;0.98;;;10.20;99.90;;;;;;5082639;28;20119;-83
2022/09/18 00:33:02;;;;;;;8.13;0.98;;;10.20;99.90;;;;;;5088895;28;20054;-86
2022/09/18 00:35:28;;;;;;;10.13;1.10;;;10.20;99.90;;;;;;5082914;28;20028;-82
2022/09/18 00:37:54;;;;;;;9.13;1.13;;;10.20;99.90;;;;;;5087005;28;20044;-82
2022/09/18 00:40:19;;;;;;;10.48;1.63;;;10.20;99.90;;;;;;5081748;28;20425;-82
2022/09/18 00:42:45;;;;;;;12.75;1.38;;;10.20;99.90;;;;;;5089572;28;20131;-82
2022/09/18 00:45:11;;;;;;;11.55;1.25;;;10.20;99.90;;;;;;5079173;28;20127;-82
2022/09/18 00:47:44;;;;;;;11.50;1.23;;;10.20;99.90;;;;;;5077979;28;20040;-82
2022/09/18 00:50:23;;;;;;;13.10;1.40;;;10.30;99.90;;;;;;5084448;28;20043;-82
2022/09/18 00:52:56;;;;;;;7.88;1.67;;;10.30;99.90;;;;;;5078524;28;20362;-82
2022/09/18 00:55:28;;;;;;;9.63;1.08;;;10.40;99.90;;;;;;5081402;28;20594;-82
2022/09/18 00:57:56;;;;;;;8.00;1.10;;;10.40;99.90;;;;;;5077717;28;20667;-82
2022/09/18 01:00:22;;;;;;;6.20;1.05;;;10.30;99.90;;;;;;5087821;28;20055;-84
2022/09/18 01:02:48;;;;;;;10.82;1.33;;;10.30;99.90;;;;;;5072079;28;20093;-82
2022/09/18 01:05:51;;;;;;;12.68;1.48;;;10.40;99.90;;;;;;5086614;28;20056;-82
2022/09/18 01:08:38;;;;;;;10.55;1.92;;;10.40;99.90;;;;;;5079923;28;20052;-82
2022/09/18 01:11:20;;;;;;;7.90;1.27;;;10.30;99.90;;;;;;5081988;28;20429;-83
2022/09/18 01:14:22;;;;;;;6.95;0.68;;;10.80;99.90;;;;;;5084275;28;20047;-82
2022/09/18 01:17:10;;;;;;;9.52;1.52;;;10.40;99.90;;;;;;5078744;28;20079;-81
2022/09/18 01:19:58;;;;;;;10.40;1.25;;;10.30;99.90;;;;;;5088051;28;20036;-83
2022/09/18 01:22:52;;;;;;;12.38;2.17;;;10.50;99.90;;;;;;5083943;28;20037;-81
2022/09/18 01:25:38;;;;;;;10.18;0.75;;;10.50;99.90;;;;;;5085635;28;20063;-82
2022/09/18 01:28:30;;;;;;;9.82;1.70;;;10.50;99.90;;;;;;5087930;28;20039;-82
2022/09/18 01:31:02;;;;;;;5.25;0.77;;;10.50;99.90;;;;;;5084295;28;20063;-82
2022/09/18 01:33:37;;;;;;;9.13;1.17;;;10.60;99.90;;;;;;5083117;28;20426;-82
2022/09/18 01:36:08;;;;;;;4.57;1.27;;;10.60;99.90;;;;;;5081499;28;20056;-84
2022/09/18 01:38:36;;;;;;;8.77;0.82;;;10.60;99.90;;;;;;5078219;28;20052;-84
2022/09/18 01:41:08;;;;;;;6.50;0.98;;;10.60;99.90;;;;;;5062920;28;20066;-82
2022/09/18 01:43:35;;;;;;;5.13;0.57;;;10.70;99.90;;;;;;5070815;28;20032;-82
2022/09/18 01:46:07;;;;;;;8.65;1.27;;;10.70;99.90;;;;;;5062090;28;20157;-82
2022/09/18 01:48:37;;;;;;;7.95;0.88;;;10.70;99.90;;;;;;5082662;28;20043;-82
2022/09/18 01:51:33;;;;;;;7.38;1.85;;;10.70;99.90;;;;;;5084084;28;20413;-82
2022/09/18 01:54:04;;;;;;;7.15;1.00;;;10.70;99.90;;;;;;5088458;28;20048;-82
2022/09/18 01:56:38;;;;;;;11.68;1.48;;;10.70;99.90;;;;;;5092329;28;20127;-82
2022/09/18 01:59:11;;;;;;;6.50;1.00;;;10.70;99.90;;;;;;5089198;28;20039;-83
2022/09/18 02:01:39;;;;;;;8.30;0.85;;;10.70;99.90;;;;;;5082137;28;20394;-82
2022/09/18 02:04:10;;;;;;;7.10;1.35;;;10.70;99.90;;;;;;5082987;28;20036;-82
2022/09/18 02:06:49;;;;;;;8.98;0.98;;;10.70;99.90;;;;;;5086633;28;20040;-85
2022/09/18 02:09:15;;;;;;;9.45;1.10;;;10.70;99.90;;;;;;5063848;28;20080;-84
2022/09/18 02:11:44;;;;;;;12.38;1.55;;;10.70;99.90;;;;;;5090340;28;20540;-81
2022/09/18 02:14:18;;;;;;;10.00;1.27;;;10.70;99.90;;;;;;5084616;28;20049;-82
2022/09/18 02:16:47;;;;;;;10.88;1.00;;;10.70;99.90;;;;;;5087693;28;20038;-82
2022/09/18 02:19:18;;;;;;;13.85;1.27;;;10.80;99.90;;;;;;5089652;28;20140;-84
2022/09/18 02:21:46;;;;;;;6.68;1.10;;;10.70;99.90;;;;;;5089806;28;20036;-82
2022/09/18 02:24:14;;;;;;;9.23;0.80;;;10.80;99.90;;;;;;5088465;28;20100;-83
2022/09/18 02:26:41;;;;;;;6.80;0.93;;;10.80;99.90;;;;;;5089705;28;20048;-82
2022/09/18 02:29:11;;;;;;;9.98;1.10;;;10.90;99.90;;;;;;5093068;28;20047;-82
2022/09/18 02:31:38;;;;;;;8.68;1.02;;;10.80;99.90;;;;;;5086854;28;20036;-82
2022/09/18 02:34:05;;;;;;;8.63;1.00;;;10.90;99.90;;;;;;5089757;28;20040;-84
2022/09/18 02:36:46;;;;;;;5.63;0.68;;;10.90;99.90;;;;;;5091850;28;20036;-82
2022/09/18 02:39:37;;;;;;;10.77;0.90;;;11.00;99.90;;;;;;5087243;28;20048;-84
2022/09/18 02:42:21;;;;;;;8.75;0.90;;;11.00;99.90;;;;;;5085081;28;20055;-83
2022/09/18 02:45:06;;;;;;;3.97;0.68;;;11.00;99.90;;;;;;5091869;28;20040;-82
2022/09/18 02:48:18;;;;;;;6.30;0.80;;;11.00;99.90;;;;;;5080417;28;20127;-82
2022/09/18 02:51:06;;;;;;;10.30;0.95;;;11.10;99.90;;;;;;5015346;28;20103;-81
2022/09/18 02:54:13;;;;;;;6.95;1.13;;;11.10;99.90;;;;;;5016563;28;20041;-82
2022/09/18 02:56:51;;;;;;;6.43;0.82;;;11.10;99.90;;;;;;5072377;28;20040;-82
2022/09/18 02:59:38;;;;;;;9.70;1.75;;;11.10;99.90;;;;;;5083518;28;20045;-83
2022/09/18 03:02:05;;;;;;;4.82;0.77;;;11.10;99.90;;;;;;5091466;28;20036;-82
2022/09/18 03:04:31;;;;;;;8.52;1.08;;;11.10;99.90;;;;;;5081615;28;20047;-82
2022/09/18 03:06:56;;;;;;;6.32;1.00;;;11.20;99.90;;;;;;5090151;28;20040;-83
2022/09/18 03:09:23;;;;;;;8.93;0.90;;;11.20;99.90;;;;;;5089739;28;20048;-82
2022/09/18 03:11:49;;;;;;;6.32;0.82;;;11.20;99.90;;;;;;5083739;28;20083;-82
2022/09/18 03:14:15;;;;;;;8.90;0.85;;;11.20;99.90;;;;;;5089550;28;20067;-82
2022/09/18 03:16:41;;;;;;;12.13;1.13;;;11.20;99.90;;;;;;5081719;28;20071;-82
2022/09/18 03:19:06;;;;;;;10.02;1.25;;;11.20;99.90;;;;;;5083390;28;20451;-82
2022/09/18 03:21:32;;;;;;;8.15;1.00;;;11.20;99.90;;;;;;5085730;28;20032;-82
2022/09/18 03:23:58;;;;;;;6.43;0.82;;;11.20;99.90;;;;;;5085993;28;20044;-83
2022/09/18 03:26:23;;;;;;;11.95;1.02;;;11.20;99.90;;;;;;5083442;28;20058;-82
2022/09/18 03:28:49;;;;;;;9.55;1.15;;;11.20;99.90;;;;;;5080739;28;20051;-82
2022/09/18 03:31:14;;;;;;;7.95;0.90;;;11.20;99.90;;;;;;5087135;28;20044;-82
2022/09/18 03:33:40;;;;;;;5.60;0.85;;;11.30;99.90;;;;;;5085702;28;20102;-84
2022/09/18 03:36:07;;;;;;;4.90;0.40;;;11.20;99.90;;;;;;5088281;28;20067;-83
2022/09/18 03:38:33;;;;;;;7.07;1.27;;;11.20;99.90;;;;;;5087804;28;20501;-85
2022/09/18 03:40:59;;;;;;;5.05;0.77;;;11.40;99.90;;;;;;5083499;28;20028;-83
2022/09/18 03:43:25;;;;;;;7.40;0.90;;;11.60;99.90;;;;;;5088145;28;20078;-83
2022/09/18 03:45:51;;;;;;;7.22;1.08;;;11.30;99.90;;;;;;5089236;28;20044;-82
2022/09/18 03:48:19;;;;;;;9.75;1.45;;;11.20;99.90;;;;;;5077594;28;20120;-82
2022/09/18 03:50:46;;;;;;;6.72;1.20;;;11.30;99.90;;;;;;5081768;28;20040;-82
2022/09/18 03:53:12;;;;;;;9.98;1.42;;;11.20;99.90;;;;;;5082779;28;20229;-82
2022/09/18 03:55:38;;;;;;;9.45;1.30;;;11.20;99.90;;;;;;5085315;28;20550;-82
2022/09/18 03:58:03;;;;;;;5.90;1.52;;;11.30;99.90;;;;;;5071928;28;20036;-83
2022/09/18 04:00:29;;;;;;;5.80;1.08;;;11.20;99.90;;;;;;5080626;28;20033;-84
2022/09/18 04:02:55;;;;;;;6.85;1.15;;;11.20;99.90;;;;;;5089232;28;20032;-83
2022/09/18 04:05:20;;;;;;;4.47;0.40;;;11.20;99.90;;;;;;5070908;28;20040;-82
2022/09/18 04:07:46;;;;;;;9.15;1.13;;;11.20;99.90;;;;;;5078219;28;20036;-82
2022/09/18 04:10:12;;;;;;;5.18;0.52;;;11.20;99.90;;;;;;5083224;28;20070;-82
2022/09/18 04:12:37;;;;;;;5.55;1.08;;;11.20;99.90;;;;;;5088874;28;20044;-82
2022/09/18 04:15:03;;;;;;;6.32;0.90;;;11.20;99.90;;;;;;5081289;28;20040;-82
2022/09/18 04:17:29;;;;;;;8.40;1.02;;;11.20;99.90;;;;;;5092787;28;20056;-81
2022/09/18 04:19:54;;;;;;;5.82;0.90;;;11.10;99.90;;;;;;5084414;28;20035;-82
2022/09/18 04:22:21;;;;;;;6.50;0.68;;;11.10;99.90;;;;;;5087176;28;20036;-83
2022/09/18 04:24:46;;;;;;;7.03;0.82;;;11.10;99.90;;;;;;5083145;28;20062;-84
2022/09/18 04:27:12;;;;;;;7.95;0.85;;;11.10;99.90;;;;;;5068140;28;20048;-82
2022/09/18 04:29:38;;;;;;;6.43;0.70;;;11.20;99.90;;;;;;5077598;28;20333;-82
2022/09/18 04:32:06;;;;;;;8.18;0.70;;;11.10;99.90;;;;;;5086537;28;20052;-83
2022/09/18 04:34:32;;;;;;;10.38;0.68;;;11.10;99.90;;;;;;5082290;28;20039;-82
2022/09/18 04:36:57;;;;;;;6.40;0.65;;;11.10;99.90;;;;;;5087892;28;20056;-82
2022/09/18 04:39:23;;;;;;;6.20;1.00;;;11.10;99.90;;;;;;5085674;28;20040;-84
2022/09/18 04:41:49;;;;;;;9.10;0.77;;;11.10;99.90;;;;;;5086800;28;20605;-82
2022/09/18 04:44:15;;;;;;;8.48;1.65;;;11.10;99.90;;;;;;5083803;28;20111;-82
2022/09/18 04:46:40;;;;;;;8.02;0.93;;;11.50;99.90;;;;;;5085634;28;20120;-82
2022/09/18 04:49:06;;;;;;;5.57;0.60;;;11.10;99.90;;;;;;5069499;28;20043;-83
2022/09/18 04:51:32;;;;;;;8.48;0.65;;;11.10;99.90;;;;;;5067866;28;20036;-83
2022/09/18 04:53:57;;;;;;;11.10;1.02;;;11.10;99.90;;;;;;5086025;28;20070;-84
2022/09/18 04:56:23;;;;;;;8.60;1.05;;;11.20;99.90;;;;;;5084086;28;20521;-83
2022/09/18 04:58:49;;;;;;;10.60;1.00;;;11.20;99.90;;;;;;5084968;28;20081;-82
2022/09/18 05:01:15;;;;;;;7.10;0.50;;;11.20;99.90;;;;;;5085121;28;20032;-82
2022/09/18 05:03:41;;;;;;;2.95;0.40;;;11.20;99.90;;;;;;5083155;28;20029;-82
2022/09/18 05:06:07;;;;;;;6.78;1.05;;;11.20;99.90;;;;;;5078755;28;20040;-83
2022/09/18 05:08:33;;;;;;;6.85;0.73;;;11.20;99.90;;;;;;5085520;28;20115;-83
2022/09/18 05:11:00;;;;;;;3.33;0.60;;;11.20;99.90;;;;;;5089364;28;20039;-82
2022/09/18 05:13:25;;;;;;;7.00;0.73;;;11.20;99.90;;;;;;5087642;28;20035;-82
2022/09/18 05:15:55;;;;;;;7.45;1.08;;;11.20;99.90;;;;;;5074509;28;20032;-83
2022/09/18 05:18:21;;;;;;;8.38;0.63;;;11.30;99.90;;;;;;5083044;28;20076;-83
2022/09/18 05:20:47;;;;;;;4.57;0.60;;;11.20;99.90;;;;;;5082055;28;20043;-83
2022/09/18 05:23:13;;;;;;;8.57;0.93;;;11.30;99.90;;;;;;5084056;28;20040;-82
2022/09/18 05:25:39;;;;;;;7.95;0.95;;;11.30;99.90;;;;;;5081184;28;20047;-83
2022/09/18 05:28:04;;;;;;;8.02;0.68;;;11.30;99.90;;;;;;5086542;28;20036;-82
2022/09/18 05:30:30;;;;;;;6.38;0.80;;;11.30;99.90;;;;;;5069755;28;20127;-82
2022/09/18 05:33:01;;;;;;;6.18;0.70;;;11.30;99.90;;;;;;5089054;28;20043;-81
2022/09/18 05:35:29;;;;;;;7.57;0.85;;;11.20;99.90;;;;;;5084407;28;20036;-81
2022/09/18 05:37:56;;;;;;;11.30;2.38;;;11.20;99.90;;;;;;5082444;28;20113;-84
2022/09/18 05:40:23;;;;;;;6.68;0.75;;;11.20;99.90;;;;;;5071234;28;20059;-84
2022/09/18 05:42:51;;;;;;;3.92;0.60;;;11.20;99.90;;;;;;5090417;28;20043;-81
2022/09/18 05:45:18;;;;;;;5.03;0.65;;;11.20;99.90;;;;;;5083558;28;20052;-81
2022/09/18 05:47:53;;;;;;;6.72;0.47;;;11.20;99.90;;;;;;5069392;28;20059;-83
2022/09/18 05:50:20;;;;;;;5.23;0.60;;;11.30;99.90;;;;;;5080324;28;20044;-82
2022/09/18 05:52:46;;;;;;;4.65;0.63;;;11.20;99.90;;;;;;5082598;28;20170;-82
2022/09/18 05:55:12;;;;;;;7.28;0.50;;;11.20;99.90;;;;;;5085063;28;20040;-82
2022/09/18 05:57:37;;;;;;;4.95;0.40;;;11.20;99.90;;;;;;5079135;28;20036;-81
2022/09/18 06:00:03;;;;;;;7.32;0.77;;;11.30;99.90;;;;;;5079809;28;20045;-82
2022/09/18 06:02:29;;;;;;;4.20;0.40;;;11.20;99.90;;;;;;5086442;28;20044;-81
2022/09/18 06:04:56;;;;;;;6.18;0.52;;;11.30;99.90;;;;;;5084563;28;20047;-82
2022/09/18 06:07:22;;;;;;;4.80;0.80;;;11.50;99.90;;;;;;5082744;28;20032;-82
2022/09/18 06:09:47;;;;;;;7.20;0.50;;;11.30;99.90;;;;;;5087906;28;20040;-82
2022/09/18 06:12:13;;;;;;;8.30;0.50;;;11.30;99.90;;;;;;5080920;28;20064;-82
2022/09/18 06:14:39;;;;;;;3.50;0.57;;;11.30;99.90;;;;;;5081351;28;20040;-83
2022/09/18 06:17:04;;;;;;;7.45;0.98;;;11.30;99.90;;;;;;5082536;28;20043;-82
2022/09/18 06:19:30;;;;;;;5.63;0.40;;;11.30;99.90;;;;;;5069474;28;20036;-81
2022/09/18 06:21:56;;;;;;;6.38;0.50;;;11.70;99.90;;;;;;5083247;28;20182;-83
2022/09/18 06:24:21;;;;;;;7.38;0.80;;;11.30;99.90;;;;;;5067658;28;20040;-82
2022/09/18 06:26:48;;;;;;;4.15;0.40;;;11.30;99.90;;;;;;5080146;28;20044;-83
2022/09/18 06:29:14;;;;;;;6.38;0.65;;;11.30;99.90;;;;;;5077346;28;20049;-81
2022/09/18 06:31:39;;;;;;;4.40;0.47;;;11.30;99.90;;;;;;5084176;28;20051;-84
2022/09/18 06:34:05;;;;;;;6.10;1.27;;;11.30;99.90;;;;;;5091758;28;20028;-82
2022/09/18 06:36:42;;;;;;;5.88;0.75;;;11.30;99.90;;;;;;5084348;28;20042;-83
2022/09/18 06:39:35;;;;;;;7.00;0.70;;;11.30;99.90;;;;;;5068251;28;20036;-84
2022/09/18 06:58:03;;;;;;;3.85;0.68;;;11.30;99.90;;;;;;4928855;29;20225;-82
2022/09/18 07:05:45;;;;;;;5.53;0.65;;;11.40;99.90;;;;;;4842262;29;20063;-82
2022/09/18 07:28:24;;;;;;;4.57;0.50;;;11.50;99.90;;;;;;4756339;30;20414;-82
2022/09/18 07:31:26;;;;;;;4.97;0.70;;;11.50;99.90;;;;;;4891702;28;20049;-85
2022/09/18 07:34:13;;;;;;;8.00;2.08;;;11.50;99.90;;;;;;5010389;28;20633;-82
2022/09/18 07:37:05;;;;;;;5.25;0.75;;;11.60;99.90;;;;;;5083439;28;20116;-82
2022/09/18 07:39:35;;;;;;;7.13;2.40;;;11.50;99.90;;;;;;5069875;28;20039;-82
2022/09/18 07:42:03;;;;;;;4.78;0.60;;;11.50;99.90;;;;;;5083385;28;20384;-82
2022/09/18 07:45:16;;;;;;;3.33;0.50;;;11.60;99.90;;;;;;5084619;28;20040;-83
2022/09/18 07:48:28;;;;;;;6.18;0.60;;;11.60;99.90;;;;;;5080849;28;20036;-82
2022/09/18 07:51:06;;;;;;;7.15;1.05;;;11.50;99.90;;;;;;5033976;28;20047;-82
2022/09/18 07:53:51;;;;;;;5.68;0.98;;;11.50;99.90;;;;;;5081975;28;20048;-84
2022/09/18 07:56:17;;;;;;;6.18;0.88;;;11.50;99.90;;;;;;5086062;28;20044;-83
2022/09/18 07:58:43;;;;;;;4.38;0.75;;;11.50;99.90;;;;;;5084480;28;20039;-84
2022/09/18 08:01:08;;;;;;;5.10;0.65;;;11.50;99.90;;;;;;5081337;28;20081;-83
2022/09/18 08:03:36;;;;;;;6.80;0.93;;;11.50;99.90;;;;;;5081455;28;20041;-83
2022/09/18 08:06:05;;;;;;;7.20;1.02;;;11.50;99.90;;;;;;5085044;28;20032;-84
2022/09/18 08:08:34;;;;;;;4.75;1.05;;;11.40;99.90;;;;;;5072890;28;20048;-86
2022/09/18 08:11:00;;;;;;;5.43;0.85;;;11.60;99.90;;;;;;5070136;28;20395;-83
2022/09/18 08:13:25;;;;;;;4.45;0.50;;;11.50;99.90;;;;;;5064011;28;20058;-83
2022/09/18 08:19:17;;;;;;;6.72;0.98;;;11.50;99.90;;;;;;5075121;28;20052;-83
2022/09/18 08:22:04;;;;;;;6.25;0.90;;;11.50;99.90;;;;;;5071242;28;20105;-83
2022/09/18 08:24:30;;;;;;;3.28;0.30;;;11.50;99.90;;;;;;5077016;28;20184;-84
2022/09/18 08:27:02;;;;;;;3.70;0.32;;;11.50;99.90;;;;;;5068066;28;20067;-84
2022/09/18 08:29:28;;;;;;;3.75;0.43;;;11.80;99.90;;;;;;5086619;28;20039;-83
2022/09/18 08:31:54;;;;;;;3.10;0.20;;;11.60;99.90;;;;;;5083444;28;20162;-83
2022/09/18 08:34:20;;;;;;;3.90;0.35;;;11.60;99.90;;;;;;5084878;28;20178;-83
2022/09/18 08:36:45;;;;;;;5.40;0.50;;;11.60;99.90;;;;;;5089296;28;20600;-83
2022/09/18 08:39:11;;;;;;;2.65;0.30;;;11.60;99.90;;;;;;5088069;28;20490;-83
2022/09/18 08:41:43;;;;;;;4.47;0.40;;;11.70;99.90;;;;;;5085695;28;20075;-83
2022/09/18 08:44:23;;;;;;;4.97;0.40;;;11.80;99.90;;;;;;5086131;28;20500;-85
2022/09/18 08:47:05;;;;;;;3.22;0.63;;;11.70;99.90;;;;;;5085052;28;20645;-85
2022/09/18 08:49:36;;;;;;;6.38;1.00;;;11.80;99.90;;;;;;5082550;28;20051;-85
2022/09/18 08:52:23;;;;;;;5.57;0.70;;;11.90;99.90;;;;;;5088160;28;20174;-84
2022/09/18 08:54:49;;;;;;;7.40;0.30;;;11.90;99.90;;;;;;5082554;28;20107;-84
2022/09/18 08:57:24;;;;;;;3.53;0.30;;;11.80;99.90;;;;;;5076288;28;20050;-84
2022/09/18 08:59:55;;;;;;;1.65;0.30;;;11.90;99.90;;;;;;5087721;28;20032;-86
2022/09/18 09:03:18;;;;;;;4.95;0.50;;;11.80;99.90;;;;;;5080345;28;20051;-89
2022/09/18 09:05:50;;;;;;;6.53;0.50;;;11.90;99.90;;;;;;5069466;28;20039;-86
2022/09/18 09:08:37;;;;;;;4.88;0.40;;;12.10;99.90;;;;;;5089200;28;20441;-89
2022/09/18 09:11:40;;;;;;;6.13;0.68;;;12.00;99.90;;;;;;5074090;28;20116;-86
2022/09/18 09:14:48;;;;;;;7.53;0.93;;;12.10;99.90;;;;;;5073840;28;20127;-83
2022/09/18 09:17:39;;;;;;;4.55;0.52;;;12.10;99.90;;;;;;5086479;28;20044;-84
2022/09/18 09:20:22;;;;;;;6.60;0.40;;;12.10;99.90;;;;;;5087878;28;20128;-84
2022/09/18 09:22:59;;;;;;;7.35;0.68;;;12.20;99.90;;;;;;5091250;28;20037;-86
2022/09/18 09:25:47;;;;;;;4.93;0.43;;;12.20;99.90;;;;;;5089754;28;20036;-85
2022/09/18 09:28:54;;;;;;;5.68;0.75;;;12.20;99.90;;;;;;5086855;28;20036;-86
2022/09/18 09:32:36;;;;;;;4.68;0.47;;;12.30;99.90;;;;;;5086006;28;20047;-85
2022/09/18 09:39:53;;;;;;;6.32;0.38;;;12.30;99.90;;;;;;5020813;28;20045;-85
2022/09/18 09:42:47;;;;;;;4.38;0.40;;;12.40;99.90;;;;;;4922549;28;20051;-85
2022/09/18 09:46:20;;;;;;;2.28;0.40;;;12.40;99.90;;;;;;4909167;28;20046;-86
2022/09/18 09:49:13;;;;;;;6.82;0.73;;;12.40;99.90;;;;;;4954434;28;20051;-86
2022/09/18 10:17:58;;;;;;;5.63;0.50;;;12.30;99.90;;;;;;5032558;28;20053;-86
2022/09/18 10:24:43;;;;;;;3.60;0.40;;;12.20;99.90;;;;;;5089700;28;20046;-86
2022/09/18 10:27:13;;;;;;;5.18;0.30;;;12.30;99.90;;;;;;5070460;28;20054;-85
2022/09/18 10:29:39;;;;;;;6.47;0.60;;;12.30;99.90;;;;;;5095348;28;20039;-86
2022/09/18 10:32:05;;;;;;;5.82;0.60;;;12.30;99.90;;;;;;5076658;28;20036;-85
2022/09/18 10:34:59;;;;;;;3.38;0.70;;;12.60;99.90;;;;;;5090938;28;20069;-87
2022/09/18 10:37:28;;;;;;;3.03;0.40;;;12.60;99.90;;;;;;5069035;28;20036;-85
2022/09/18 10:43:49;;;;;;;5.50;0.73;;;12.40;99.90;;;;;;5089692;28;20165;-83
2022/09/18 11:16:30;;;;;;;5.63;0.82;;;12.60;99.90;;;;;;4914160;29;20097;-83
2022/09/18 11:19:14;;;;;;;5.00;1.13;;;12.70;99.90;;;;;;5009328;28;20146;-83
2022/09/18 11:22:47;;;;;;;5.25;0.85;;;12.60;99.90;;;;;;5030738;28;20060;-85
2022/09/18 11:25:48;;;;;;;7.80;0.80;;;12.60;99.90;;;;;;5067514;28;20117;-86
2022/09/18 11:28:29;;;;;;;6.53;0.50;;;12.70;99.90;;;;;;5084311;28;20036;-85
2022/09/18 11:31:18;;;;;;;5.85;1.00;;;12.80;99.90;;;;;;5087628;28;20071;-83
2022/09/18 11:33:59;;;;;;;8.15;1.38;;;12.80;99.90;;;;;;5081570;28;20048;-82
2022/09/18 11:36:40;;;;;;;6.15;0.70;;;12.90;99.90;;;;;;5079590;28;20028;-86
2022/09/18 11:42:53;;;;;;;3.33;0.52;;;12.90;99.90;;;;;;5070241;28;20035;-85
2022/09/18 11:46:20;;;;;;;5.15;0.57;;;13.60;99.90;;;;;;5067628;28;20087;-87
2022/09/18 11:53:04;;;;;;;5.60;0.63;;;13.10;99.90;;;;;;5009147;28;20669;-85
2022/09/18 11:56:14;;;;;;;4.72;0.88;;;13.20;99.90;;;;;;4975394;28;20038;-86
2022/09/18 12:03:35;;;;;;;10.40;1.35;;;13.40;99.90;;;;;;4912880;29;20197;-86
2022/09/18 12:06:26;;;;;;;7.55;0.70;;;13.50;99.90;;;;;;4848060;29;20068;-85
2022/09/18 12:09:41;;;;;;;8.48;1.38;;;13.60;99.90;;;;;;4928352;28;20090;-84
2022/09/18 12:12:31;;;;;;;11.88;1.05;;;13.80;99.90;;;;;;4981395;28;20056;-87
2022/09/18 12:15:24;;;;;;;8.00;1.23;;;14.50;99.90;;;;;;5082083;28;20136;-85
2022/09/18 12:18:25;;;;;;;8.95;1.65;;;14.00;99.90;;;;;;5085110;28;20040;-83
2022/09/18 12:21:28;;;;;;;10.63;1.85;;;14.10;99.90;;;;;;5090448;28;20041;-84
2022/09/18 12:23:56;;;;;;;10.52;1.27;;;14.10;99.90;;;;;;5089885;28;20383;-85
2022/09/18 12:27:27;;;;;;;8.93;1.50;;;14.10;99.90;;;;;;5075970;28;20127;-84
2022/09/18 12:30:03;;;;;;;6.47;1.52;;;14.20;99.90;;;;;;5070078;28;20044;-84
2022/09/18 12:36:58;;;;;;;9.20;1.17;;;14.30;99.90;;;;;;5062330;28;20040;-81
2022/09/18 12:39:57;;;;;;;8.93;1.00;;;14.30;99.90;;;;;;5024973;28;20152;-83
2022/09/18 12:42:53;;;;;;;6.25;0.60;;;14.30;99.90;;;;;;5042561;28;20113;-82
2022/09/18 12:46:00;;;;;;;7.43;1.33;;;14.30;99.90;;;;;;5084770;28;20078;-85
2022/09/18 12:52:35;;;;;;;7.18;1.50;;;14.30;99.90;;;;;;5082623;28;20089;-82
2022/09/18 12:55:03;;;;;;;7.45;1.20;;;14.30;99.90;;;;;;5085737;28;20128;-81
2022/09/18 12:57:51;;;;;;;8.40;0.82;;;14.30;99.90;;;;;;5080481;28;20046;-83
2022/09/18 13:08:28;;;;;;;6.65;1.02;;;14.00;99.90;;;;;;5082915;28;20062;-84
2022/09/18 13:11:00;;;;;;;8.38;0.80;;;14.00;99.90;;;;;;5073360;28;20547;-82
2022/09/18 13:13:55;;;;;;;7.22;0.80;;;14.00;99.90;;;;;;5086307;28;20040;-83
2022/09/18 13:16:39;;;;;;;5.72;1.08;;;13.90;99.90;;;;;;5080190;28;20048;-84
2022/09/18 13:19:27;;;;;;;6.10;0.93;;;13.90;99.90;;;;;;5085819;28;20054;-83
2022/09/18 13:21:53;;;;;;;5.50;0.60;;;13.80;99.90;;;;;;5082927;28;20040;-84
2022/09/18 13:24:24;;;;;;;5.50;0.63;;;13.80;99.90;;;;;;5070876;28;20040;-83
2022/09/18 13:26:51;;;;;;;7.25;0.73;;;13.80;99.90;;;;;;5084310;28;20119;-85
2022/09/18 13:29:55;;;;;;;6.20;0.70;;;13.80;99.90;;;;;;5084460;28;20044;-84
2022/09/18 13:32:31;;;;;;;5.47;0.80;;;13.80;99.90;;;;;;5087436;28;20041;-83
2022/09/18 13:35:00;;;;;;;12.40;1.27;;;13.80;99.90;;;;;;5079943;28;20048;-84
2022/09/18 13:37:50;;;;;;;6.15;0.65;;;13.80;99.90;;;;;;5068083;28;20086;-86
2022/09/18 13:40:40;;;;;;;4.85;0.77;;;13.80;99.90;;;;;;5079702;28;20697;-84
2022/09/18 13:43:28;;;;;;;3.60;0.85;;;13.70;99.90;;;;;;5052266;28;20499;-83
2022/09/18 13:45:55;;;;;;;10.10;0.80;;;13.80;99.90;;;;;;5068832;28;20537;-84
2022/09/18 13:48:28;;;;;;;4.88;0.55;;;13.70;99.90;;;;;;5066855;28;20087;-85
2022/09/18 13:50:57;;;;;;;5.82;0.98;;;13.70;99.90;;;;;;5071499;28;20055;-84
2022/09/18 13:53:35;;;;;;;9.65;1.17;;;14.50;99.90;;;;;;5093869;28;20059;-85
2022/09/18 13:56:02;;;;;;;3.90;0.45;;;13.70;99.90;;;;;;5087909;28;20052;-85
2022/09/18 14:09:52;;;;;;;6.72;0.50;;;13.80;99.90;;;;;;5086186;28;20678;-85
2022/09/18 14:12:18;;;;;;;7.40;1.15;;;13.90;99.90;;;;;;5071130;28;20041;-85
2022/09/18 14:15:00;;;;;;;6.35;1.05;;;14.10;99.90;;;;;;5072625;28;20090;-85
2022/09/18 14:17:27;;;;;;;6.03;0.90;;;13.90;99.90;;;;;;5076995;28;20075;-85
2022/09/18 14:20:20;;;;;;;7.53;0.70;;;14.00;99.90;;;;;;5076597;28;20194;-85
2022/09/18 14:22:46;;;;;;;10.32;1.00;;;14.00;99.90;;;;;;5072816;28;20032;-86
2022/09/18 14:25:13;;;;;;;6.53;0.80;;;14.10;99.90;;;;;;5075184;28;20054;-85
2022/09/18 14:27:41;;;;;;;9.50;1.00;;;14.10;99.90;;;;;;5090649;28;20044;-85
2022/09/18 14:30:11;;;;;;;7.10;0.73;;;14.20;99.90;;;;;;5074516;28;20039;-84
2022/09/18 14:32:39;;;;;;;6.53;1.05;;;14.20;99.90;;;;;;5085693;28;20083;-85
2022/09/18 14:35:37;;;;;;;5.32;0.98;;;14.20;99.90;;;;;;5082488;28;20101;-85
2022/09/18 14:38:35;;;;;;;7.32;0.90;;;14.20;99.90;;;;;;5086233;28;20041;-86
2022/09/18 14:41:52;;;;;;;5.97;0.52;;;14.20;99.90;;;;;;5090353;28;20737;-85
2022/09/18 14:44:27;;;;;;;6.25;0.60;;;14.10;99.90;;;;;;5044545;28;20045;-85
2022/09/18 14:51:26;;;;;;;5.95;0.93;;;13.90;99.90;;;;;;5038368;28;20043;-85
2022/09/18 15:35:07;;;;;;;6.72;0.77;;;13.10;99.90;;;;;;4872673;29;20099;-84
2022/09/18 15:37:36;;;;;;;6.13;1.02;;;13.10;99.90;;;;;;4932439;28;20065;-82
2022/09/18 15:40:06;;;;;;;6.05;1.17;;;13.20;99.90;;;;;;4994708;28;20412;-83
2022/09/18 15:42:35;;;;;;;9.32;1.80;;;13.30;99.90;;;;;;5091481;28;20179;-83
2022/09/18 15:45:01;;;;;;;10.95;1.70;;;13.20;99.90;;;;;;5079742;28;20098;-82
2022/09/18 15:47:44;;;;;;;8.80;1.10;;;13.90;99.90;;;;;;5080701;28;20048;-82
2022/09/18 15:50:47;;;;;;;9.70;1.10;;;13.40;99.90;;;;;;5065162;28;20516;-85
2022/09/18 15:53:37;;;;;;;8.93;1.15;;;13.40;99.90;;;;;;5081134;28;20101;-84
2022/09/18 15:56:07;;;;;;;8.25;1.17;;;13.40;99.90;;;;;;5082349;28;20425;-84
2022/09/18 15:59:18;;;;;;;13.57;1.08;;;13.30;99.90;;;;;;5086429;28;20448;-82
2022/09/18 16:01:47;;;;;;;7.28;1.00;;;13.40;99.90;;;;;;5086616;28;20040;-83
2022/09/18 16:04:33;;;;;;;11.82;1.67;;;13.30;99.90;;;;;;5082299;28;20036;-84
2022/09/18 16:08:00;;;;;;;8.50;1.63;;;13.30;99.90;;;;;;5086331;28;20032;-84
2022/09/18 16:10:51;;;;;;;6.13;1.08;;;13.30;99.90;;;;;;5083159;28;20032;-83
2022/09/18 16:13:18;;;;;;;7.72;1.85;;;13.40;99.90;;;;;;5083171;28;20810;-83
2022/09/18 16:16:13;;;;;;;8.63;0.93;;;13.30;99.90;;;;;;5068297;28;20040;-84
2022/09/18 16:19:31;;;;;;;7.38;1.08;;;13.20;99.90;;;;;;5086401;28;20131;-86
2022/09/18 16:22:09;;;;;;;6.60;0.93;;;13.10;99.90;;;;;;5078289;28;20072;-84
2022/09/18 16:24:36;;;;;;;6.35;0.88;;;13.10;99.90;;;;;;5081758;28;20079;-83
2022/09/18 16:27:15;;;;;;;7.07;0.65;;;13.80;99.90;;;;;;5085797;28;20130;-85
2022/09/18 16:34:37;;;;;;;8.88;0.80;;;12.90;99.90;;;;;;5080741;28;20130;-84
2022/09/18 16:37:07;;;;;;;5.63;0.90;;;12.90;99.90;;;;;;4994123;28;20130;-83
2022/09/18 16:39:34;;;;;;;5.38;0.60;;;12.70;99.90;;;;;;5006290;28;20045;-84
2022/09/18 16:45:43;;;;;;;7.95;1.40;;;12.80;99.90;;;;;;5020147;28;20049;-85
2022/09/18 16:48:09;;;;;;;6.65;1.00;;;12.70;99.90;;;;;;5038558;28;20048;-82
2022/09/18 16:50:37;;;;;;;7.15;0.63;;;12.60;99.90;;;;;;5084398;28;20059;-83
2022/09/18 16:53:21;;;;;;;5.80;0.73;;;12.60;99.90;;;;;;5076247;28;20130;-83
2022/09/18 16:55:50;;;;;;;6.03;1.05;;;12.60;99.90;;;;;;5076176;28;20541;-85
2022/09/18 16:58:19;;;;;;;11.88;1.05;;;12.60;99.90;;;;;;5083338;28;20089;-85